createdAt,value
2023-03-21T00:00:49.084Z,98683.00
2023-03-21T00:03:17.305Z,98689.00
2023-03-21T00:05:49.866Z,98681.00
2023-03-21T00:08:18.071Z,98680.00
2023-03-21T00:10:46.141Z,98676.00
2023-03-21T00:13:15.934Z,98682.00
2023-03-21T00:16:04.428Z,98680.00
2023-03-21T00:18:41.986Z,98676.00
2023-03-21T00:24:00.654Z,98673.00
2023-03-21T00:26:28.985Z,98675.00
2023-03-21T00:28:58.604Z,98672.00
2023-03-21T00:31:26.643Z,98668.00
2023-03-21T00:33:54.752Z,98673.00
2023-03-21T00:36:25.873Z,98663.00
2023-03-21T00:38:54.098Z,98660.00
2023-03-21T00:41:39.222Z,98653.00
2023-03-21T00:44:13.697Z,98648.00
2023-03-21T00:46:54.151Z,98652.00
2023-03-21T00:49:29.459Z,98652.00
2023-03-21T00:52:08.525Z,98646.00
2023-03-21T00:54:40.633Z,98648.00
2023-03-21T00:57:08.719Z,98642.00
2023-03-21T00:59:38.139Z,98641.00
2023-03-21T01:02:07.441Z,98626.00
2023-03-21T01:04:35.574Z,98637.00
2023-03-21T01:07:03.652Z,98635.00
2023-03-21T01:09:31.740Z,98626.00
2023-03-21T01:11:59.847Z,98623.00
2023-03-21T01:14:27.916Z,98627.00
2023-03-21T01:16:57.358Z,98629.00
2023-03-21T01:19:44.291Z,98633.00
2023-03-21T01:22:16.474Z,98633.00
2023-03-21T01:24:52.935Z,98630.00
2023-03-21T01:27:23.489Z,98633.00
2023-03-21T01:29:51.551Z,98633.00
2023-03-21T01:32:21.003Z,98640.00
2023-03-21T01:34:49.382Z,98639.00
2023-03-21T01:37:19.136Z,98632.00
2023-03-21T01:39:47.179Z,98620.00
2023-03-21T01:42:15.524Z,98619.00
2023-03-21T01:44:54.072Z,98614.00
2023-03-21T01:47:23.544Z,98617.00
2023-03-21T01:49:53.014Z,98613.00
2023-03-21T01:52:35.831Z,98612.00
2023-03-21T01:55:07.094Z,98607.00
2023-03-21T01:57:45.101Z,98586.00
2023-03-21T02:00:18.501Z,98611.00
2023-03-21T02:02:52.627Z,98607.00
2023-03-21T02:05:21.514Z,98597.00
2023-03-21T02:07:49.629Z,98612.00
2023-03-21T02:10:17.788Z,98600.00
2023-03-21T02:12:45.844Z,98601.00
2023-03-21T02:15:13.952Z,98609.00
2023-03-21T02:17:44.136Z,98596.00
2023-03-21T02:20:28.649Z,98592.00
2023-03-21T02:23:16.211Z,98586.00
2023-03-21T02:26:12.977Z,98608.00
2023-03-21T02:28:41.603Z,98599.00
2023-03-21T02:31:33.741Z,98598.00
2023-03-21T02:34:25.948Z,98604.00
2023-03-21T02:37:02.923Z,98589.00
2023-03-21T02:39:35.289Z,98596.00
2023-03-21T02:42:04.808Z,98592.00
2023-03-21T02:44:34.944Z,98589.00
2023-03-21T02:47:06.454Z,98600.00
2023-03-21T02:49:38.320Z,98595.00
2023-03-21T02:52:15.522Z,98593.00
2023-03-21T02:54:48.859Z,98590.00
2023-03-21T02:57:18.537Z,98598.00
2023-03-21T02:59:54.318Z,98595.00
2023-03-21T03:02:28.049Z,98602.00
2023-03-21T03:04:56.616Z,98597.00
2023-03-21T03:07:35.023Z,98592.00
2023-03-21T03:10:29.431Z,98561.00
2023-03-21T03:13:01.869Z,98596.00
2023-03-21T03:15:35.073Z,98592.00
2023-03-21T03:18:06.220Z,98588.00
2023-03-21T03:20:39.215Z,98584.00
2023-03-21T03:23:14.623Z,98598.00
2023-03-21T03:25:46.201Z,98586.00
2023-03-21T03:28:14.480Z,98584.00
2023-03-21T03:30:53.960Z,98578.00
2023-03-21T03:33:29.229Z,98580.00
2023-03-21T03:36:04.978Z,98578.00
2023-03-21T03:38:35.749Z,98577.00
2023-03-21T03:41:05.556Z,98578.00
2023-03-21T03:43:36.163Z,98570.00
2023-03-21T03:46:10.511Z,98578.00
2023-03-21T03:48:46.425Z,98574.00
2023-03-21T03:51:16.951Z,98580.00
2023-03-21T03:53:46.964Z,98576.00
2023-03-21T03:56:15.041Z,98579.00
2023-03-21T03:58:45.926Z,98578.00
2023-03-21T04:01:14.309Z,98568.00
2023-03-21T04:03:49.866Z,98571.00
2023-03-21T04:06:19.949Z,98567.00
2023-03-21T04:08:51.016Z,98567.00
2023-03-21T04:11:19.076Z,98563.00
2023-03-21T04:13:47.140Z,98564.00
2023-03-21T04:16:15.245Z,98561.00
2023-03-21T04:18:43.331Z,98560.00
2023-03-21T04:21:12.870Z,98555.00
2023-03-21T04:23:41.060Z,98568.00
2023-03-21T04:26:10.588Z,98564.00
2023-03-21T04:28:39.859Z,98565.00
2023-03-21T04:31:22.685Z,98567.00
2023-03-21T04:33:53.382Z,98557.00
2023-03-21T04:36:27.522Z,98560.00
2023-03-21T04:38:57.294Z,98566.00
2023-03-21T04:41:26.777Z,98572.00
2023-03-21T04:43:54.835Z,98568.00
2023-03-21T04:46:22.904Z,98570.00
2023-03-21T04:48:51.190Z,98563.00
2023-03-21T04:51:19.225Z,98566.00
2023-03-21T04:53:49.453Z,98567.00
2023-03-21T04:56:17.853Z,98563.00
2023-03-21T04:58:47.270Z,98565.00
2023-03-21T05:01:20.271Z,98564.00
2023-03-21T05:03:48.783Z,98559.00
2023-03-21T05:06:16.954Z,98562.00
2023-03-21T05:08:45.038Z,98555.00
2023-03-21T05:11:13.124Z,98571.00
2023-03-21T05:13:41.552Z,98567.00
2023-03-21T05:16:11.529Z,98570.00
2023-03-21T05:18:39.691Z,98562.00
2023-03-21T05:21:10.767Z,98566.00
2023-03-21T05:23:39.313Z,98563.00
2023-03-21T05:26:08.121Z,98569.00
2023-03-21T05:28:36.856Z,98570.00
2023-03-21T05:31:05.059Z,98568.00
2023-03-21T05:33:34.580Z,98572.00
2023-03-21T05:36:02.702Z,98571.00
2023-03-21T05:38:31.162Z,98570.00
2023-03-21T05:40:59.275Z,98571.00
2023-03-21T05:43:27.379Z,98572.00
2023-03-21T05:45:56.574Z,98581.00
2023-03-21T05:48:24.645Z,98570.00
2023-03-21T05:50:54.565Z,98580.00
2023-03-21T05:53:23.325Z,98591.00
2023-03-21T05:55:51.460Z,98581.00
2023-03-21T05:58:19.482Z,98593.00
2023-03-21T06:00:47.524Z,98583.00
2023-03-21T06:03:15.553Z,98591.00
2023-03-21T06:05:43.651Z,98595.00
2023-03-21T06:08:13.116Z,98590.00
2023-03-21T06:10:41.382Z,98590.00
2023-03-21T06:13:09.523Z,98586.00
2023-03-21T06:15:37.855Z,98589.00
2023-03-21T06:18:06.185Z,98597.00
2023-03-21T06:20:34.249Z,98586.00
2023-03-21T06:23:02.291Z,98580.00
2023-03-21T06:25:31.709Z,98593.00
2023-03-21T06:27:59.801Z,98591.00
2023-03-21T06:30:27.845Z,98596.00
2023-03-21T06:32:56.128Z,98586.00
2023-03-21T06:35:24.316Z,98593.00
2023-03-21T06:37:52.471Z,98601.00
2023-03-21T06:40:20.786Z,98591.00
2023-03-21T06:42:50.353Z,98597.00
2023-03-21T06:45:18.412Z,98593.00
2023-03-21T06:47:46.580Z,98581.00
2023-03-21T06:50:14.676Z,98580.00
2023-03-21T06:52:42.740Z,98577.00
2023-03-21T06:55:11.519Z,98583.00
2023-03-21T06:57:39.585Z,98582.00
2023-03-21T07:00:10.873Z,98580.00
2023-03-21T07:02:38.956Z,98589.00
2023-03-21T07:05:07.982Z,98585.00
2023-03-21T07:07:36.036Z,98579.00
2023-03-21T07:10:04.183Z,98584.00
2023-03-21T07:12:34.136Z,98581.00
2023-03-21T07:15:02.147Z,98582.00
2023-03-21T07:17:31.584Z,98584.00
2023-03-21T07:19:59.632Z,98583.00
2023-03-21T07:22:27.661Z,98579.00
2023-03-21T07:25:04.340Z,98587.00
2023-03-21T07:27:33.059Z,98586.00
2023-03-21T07:30:01.199Z,98581.00
2023-03-21T07:32:30.100Z,98586.00
2023-03-21T07:35:01.624Z,98593.00
2023-03-21T07:37:29.836Z,98591.00
2023-03-21T07:39:57.891Z,98584.00
2023-03-21T07:42:25.977Z,98588.00
2023-03-21T07:44:55.402Z,98590.00
2023-03-21T07:47:23.475Z,98600.00
2023-03-21T07:49:51.889Z,98587.00
2023-03-21T07:52:21.350Z,98603.00
2023-03-21T07:54:49.362Z,98598.00
2023-03-21T07:57:17.682Z,98600.00
2023-03-21T07:59:45.899Z,98600.00
2023-03-21T08:02:14.733Z,98591.00
2023-03-21T08:04:42.733Z,98601.00
2023-03-21T08:07:10.739Z,98598.00
2023-03-21T08:09:40.199Z,98594.00
2023-03-21T08:12:08.467Z,98593.00
2023-03-21T08:14:36.858Z,98604.00
2023-03-21T08:17:05.382Z,98591.00
2023-03-21T08:19:33.370Z,98607.00
2023-03-21T08:22:01.466Z,98603.00
2023-03-21T08:24:30.124Z,98601.00
2023-03-21T08:27:06.012Z,98593.00
2023-03-21T08:29:34.049Z,98598.00
2023-03-21T08:32:02.102Z,98598.00
2023-03-21T08:34:30.181Z,98590.00
2023-03-21T08:36:58.344Z,98590.00
2023-03-21T08:39:26.471Z,98579.00
2023-03-21T08:41:56.937Z,98574.00
2023-03-21T08:44:26.990Z,98584.00
2023-03-21T08:46:55.055Z,98566.00
2023-03-21T08:49:23.068Z,98559.00
2023-03-21T08:51:51.570Z,98572.00
2023-03-21T08:54:22.818Z,98574.00
2023-03-21T08:56:50.927Z,98569.00
2023-03-21T08:59:18.996Z,98576.00
2023-03-21T09:01:48.498Z,98562.00
2023-03-21T09:04:18.900Z,98572.00
2023-03-21T09:06:48.866Z,98572.00
2023-03-21T09:09:17.174Z,98569.00
2023-03-21T09:11:45.270Z,98558.00
2023-03-21T09:14:13.337Z,98566.00
2023-03-21T09:16:41.517Z,98572.00
2023-03-21T09:19:11.518Z,98569.00
2023-03-21T09:21:39.602Z,98565.00
2023-03-21T09:24:08.338Z,98574.00
2023-03-21T09:26:37.036Z,98562.00
2023-03-21T09:29:05.917Z,98563.00
2023-03-21T09:31:34.182Z,98565.00
2023-03-21T09:34:02.317Z,98575.00
2023-03-21T09:36:32.510Z,98568.00
2023-03-21T09:39:00.841Z,98558.00
2023-03-21T09:41:46.715Z,98561.00
2023-03-21T09:44:37.568Z,98565.00
2023-03-21T09:47:07.598Z,98572.00
2023-03-21T09:49:36.458Z,98571.00
2023-03-21T09:52:07.726Z,98564.00
2023-03-21T09:54:37.085Z,98556.00
2023-03-21T09:57:06.601Z,98556.00
2023-03-21T09:59:40.126Z,98550.00
2023-03-21T10:02:18.433Z,98546.00
2023-03-21T10:04:46.967Z,98547.00
2023-03-21T10:07:18.878Z,98557.00
2023-03-21T10:09:47.113Z,98549.00
2023-03-21T10:12:25.775Z,98545.00
2023-03-21T10:14:57.463Z,98543.00
2023-03-21T10:17:28.176Z,98545.00
2023-03-21T10:19:58.078Z,98543.00
2023-03-21T10:22:27.497Z,98535.00
2023-03-21T10:24:55.563Z,98525.00
2023-03-21T10:27:23.798Z,98520.00
2023-03-21T10:29:53.365Z,98517.00
2023-03-21T10:32:22.944Z,98529.00
2023-03-21T10:34:51.744Z,98520.00
2023-03-21T10:37:19.838Z,98518.00
2023-03-21T10:39:49.909Z,98507.00
2023-03-21T10:42:20.339Z,98494.00
2023-03-21T10:44:49.037Z,98497.00
2023-03-21T10:47:21.118Z,98499.00
2023-03-21T10:52:38.384Z,98500.00
2023-03-21T10:55:09.632Z,98492.00
2023-03-21T10:57:38.418Z,98506.00
2023-03-21T11:00:14.945Z,98494.00
2023-03-21T11:02:43.240Z,98496.00
2023-03-21T11:05:22.581Z,98495.00
2023-03-21T11:07:58.193Z,98494.00
2023-03-21T11:10:30.611Z,98496.00
2023-03-21T11:12:58.956Z,98484.00
2023-03-21T11:15:29.050Z,98488.00
2023-03-21T11:17:57.173Z,98479.00
2023-03-21T11:20:31.778Z,98474.00
2023-03-21T11:23:01.094Z,98469.00
2023-03-21T11:25:34.028Z,98470.00
2023-03-21T11:28:02.473Z,98467.00
2023-03-21T11:30:30.543Z,98456.00
2023-03-21T11:32:59.529Z,98464.00
2023-03-21T11:35:30.009Z,98457.00
2023-03-21T11:37:58.075Z,98467.00
2023-03-21T11:40:27.163Z,98462.00
2023-03-21T11:42:57.200Z,98462.00
2023-03-21T11:45:25.896Z,98461.00
2023-03-21T11:47:55.469Z,98450.00
2023-03-21T11:50:28.815Z,98449.00
2023-03-21T11:53:18.261Z,98442.00
2023-03-21T11:55:52.347Z,98442.00
2023-03-21T11:58:36.910Z,98430.00
2023-03-21T12:01:10.152Z,98430.00
2023-03-21T12:03:49.511Z,98429.00
2023-03-21T12:06:21.423Z,98420.00
2023-03-21T12:08:54.477Z,98423.00
2023-03-21T12:11:26.346Z,98421.00
2023-03-21T12:14:01.655Z,98411.00
2023-03-21T12:16:35.456Z,98418.00
2023-03-21T12:19:13.618Z,98413.00
2023-03-21T12:21:46.038Z,98410.00
2023-03-21T12:24:15.544Z,98412.00
2023-03-21T12:26:45.935Z,98407.00
2023-03-21T12:29:30.127Z,98405.00
2023-03-21T12:32:05.261Z,98393.00
2023-03-21T12:34:49.516Z,98399.00
2023-03-21T12:37:20.823Z,98388.00
2023-03-21T12:39:49.395Z,98389.00
2023-03-21T12:42:30.571Z,98387.00
2023-03-21T12:45:06.034Z,98386.00
2023-03-21T12:47:34.231Z,98380.00
2023-03-21T12:50:04.584Z,98377.00
2023-03-21T12:52:33.750Z,98370.00
2023-03-21T12:55:02.868Z,98370.00
2023-03-21T12:57:32.217Z,98358.00
2023-03-21T13:00:03.110Z,98370.00
2023-03-21T13:02:32.904Z,98367.00
2023-03-21T13:05:04.729Z,98367.00
2023-03-21T13:07:33.426Z,98359.00
2023-03-21T13:10:02.270Z,98356.00
2023-03-21T13:12:38.910Z,98356.00
2023-03-21T13:15:27.822Z,98364.00
2023-03-21T13:18:00.530Z,98346.00
2023-03-21T13:20:31.723Z,98338.00
2023-03-21T13:23:00.519Z,98335.00
2023-03-21T13:25:29.558Z,98350.00
2023-03-21T13:28:02.408Z,98338.00
2023-03-21T13:30:32.455Z,98342.00
2023-03-21T13:33:06.195Z,98335.00
2023-03-21T13:35:37.636Z,98343.00
2023-03-21T13:38:08.906Z,98331.00
2023-03-21T13:40:38.932Z,98326.00
2023-03-21T13:43:10.151Z,98345.00
2023-03-21T13:45:48.184Z,98328.00
2023-03-21T13:48:28.122Z,98328.00
2023-03-21T13:51:01.247Z,98334.00
2023-03-21T13:53:32.811Z,98326.00
2023-03-21T13:56:20.692Z,98323.00
2023-03-21T13:58:53.740Z,98330.00
2023-03-21T14:01:28.122Z,98313.00
2023-03-21T14:04:06.147Z,98320.00
2023-03-21T14:06:39.891Z,98326.00
2023-03-21T14:09:08.046Z,98319.00
2023-03-21T14:11:36.934Z,98309.00
2023-03-21T14:14:06.386Z,98309.00
2023-03-21T14:16:35.993Z,98307.00
2023-03-21T14:19:05.049Z,98306.00
2023-03-21T14:21:34.296Z,98302.00
2023-03-21T14:24:03.058Z,98295.00
2023-03-21T14:26:33.326Z,98298.00
2023-03-21T14:29:05.195Z,98294.00
2023-03-21T14:31:34.929Z,98298.00
2023-03-21T14:34:03.040Z,98294.00
2023-03-21T14:36:32.957Z,98289.00
2023-03-21T14:39:05.850Z,98289.00
2023-03-21T14:41:34.718Z,98289.00
2023-03-21T14:44:13.200Z,98284.00
2023-03-21T14:46:43.046Z,98291.00
2023-03-21T14:49:12.778Z,98285.00
2023-03-21T14:51:41.937Z,98270.00
2023-03-21T14:54:13.545Z,98280.00
2023-03-21T14:56:41.883Z,98270.00
2023-03-21T14:59:12.666Z,98278.00
2023-03-21T15:01:42.494Z,98286.00
2023-03-21T15:04:12.454Z,98267.00
2023-03-21T15:06:53.769Z,98269.00
2023-03-21T15:09:24.038Z,98272.00
2023-03-21T15:11:52.644Z,98284.00
2023-03-21T15:14:22.179Z,98272.00
2023-03-21T15:16:51.666Z,98273.00
2023-03-21T15:19:20.845Z,98281.00
2023-03-21T15:21:49.653Z,98274.00
2023-03-21T15:24:18.832Z,98278.00
2023-03-21T15:26:47.140Z,98272.00
2023-03-21T15:29:15.235Z,98270.00
2023-03-21T15:31:43.427Z,98275.00
2023-03-21T15:34:20.111Z,98265.00
2023-03-21T15:36:48.848Z,98274.00
2023-03-21T15:39:17.549Z,98267.00
2023-03-21T15:41:57.717Z,98265.00
2023-03-21T15:44:25.751Z,98268.00
2023-03-21T15:46:53.955Z,98267.00
2023-03-21T15:49:27.351Z,98266.00
2023-03-21T15:51:58.341Z,98265.00
2023-03-21T15:54:27.245Z,98270.00
2023-03-21T15:56:56.053Z,98281.00
2023-03-21T15:59:25.572Z,98273.00
2023-03-21T16:01:53.681Z,98273.00
2023-03-21T16:04:23.820Z,98280.00
2023-03-21T16:06:52.936Z,98268.00
2023-03-21T16:09:23.729Z,98268.00
2023-03-21T16:11:52.210Z,98282.00
2023-03-21T16:14:20.348Z,98288.00
2023-03-21T16:16:48.748Z,98279.00
2023-03-21T16:19:17.753Z,98285.00
2023-03-21T16:21:47.272Z,98285.00
2023-03-21T16:24:15.400Z,98296.00
2023-03-21T16:26:45.836Z,98302.00
2023-03-21T16:29:14.111Z,98300.00
2023-03-21T16:31:42.380Z,98301.00
2023-03-21T16:34:11.154Z,98296.00
2023-03-21T16:36:40.614Z,98301.00
2023-03-21T16:39:20.360Z,98298.00
2023-03-21T16:41:48.485Z,98305.00
2023-03-21T16:44:16.689Z,98302.00
2023-03-21T16:46:44.759Z,98310.00
2023-03-21T16:49:18.979Z,98308.00
2023-03-21T16:51:47.008Z,98312.00
2023-03-21T16:54:15.091Z,98314.00
2023-03-21T16:56:45.726Z,98324.00
2023-03-21T16:59:13.877Z,98324.00
2023-03-21T17:01:42.490Z,98325.00
2023-03-21T17:04:11.265Z,98320.00
2023-03-21T17:06:44.571Z,98329.00
2023-03-21T17:09:13.727Z,98323.00
2023-03-21T17:11:42.573Z,98321.00
2023-03-21T17:14:12.687Z,98328.00
2023-03-21T17:16:43.057Z,98323.00
2023-03-21T17:19:14.348Z,98321.00
2023-03-21T17:21:42.473Z,98328.00
2023-03-21T17:24:10.667Z,98331.00
2023-03-21T17:26:38.762Z,98330.00
2023-03-21T17:29:07.343Z,98332.00
2023-03-21T17:31:38.126Z,98319.00
2023-03-21T17:34:06.328Z,98317.00
2023-03-21T17:36:35.571Z,98313.00
2023-03-21T17:39:04.436Z,98319.00
2023-03-21T17:41:32.545Z,98321.00
2023-03-21T17:44:00.780Z,98322.00
2023-03-21T17:46:29.139Z,98320.00
2023-03-21T17:48:58.694Z,98321.00
2023-03-21T17:51:30.201Z,98316.00
2023-03-21T17:53:58.987Z,98313.00
2023-03-21T17:56:27.880Z,98311.00
2023-03-21T17:58:56.030Z,98291.00
2023-03-21T18:01:24.314Z,98289.00
2023-03-21T18:03:54.760Z,98295.00
2023-03-21T18:06:25.628Z,98302.00
2023-03-21T18:08:53.889Z,98304.00
2023-03-21T18:11:22.746Z,98297.00
2023-03-21T18:13:50.943Z,98317.00
2023-03-21T18:16:21.408Z,98322.00
2023-03-21T18:18:49.514Z,98321.00
2023-03-21T18:21:20.223Z,98313.00
2023-03-21T18:23:49.920Z,98322.00
2023-03-21T18:26:19.669Z,98321.00
2023-03-21T18:29:30.311Z,98314.00
2023-03-21T18:31:37.469Z,98312.00
2023-03-21T18:34:05.559Z,98322.00
2023-03-21T18:36:34.072Z,98318.00
2023-03-21T18:39:05.124Z,98317.00
2023-03-21T18:41:33.429Z,98319.00
2023-03-21T18:44:09.158Z,98326.00
2023-03-21T18:46:47.435Z,98317.00
2023-03-21T18:49:58.788Z,98324.00
2023-03-21T18:52:03.742Z,98312.00
2023-03-21T18:54:33.193Z,98307.00
2023-03-21T18:59:50.504Z,98306.00
2023-03-21T19:02:19.067Z,98313.00
2023-03-21T19:04:47.958Z,98311.00
2023-03-21T19:07:16.244Z,98309.00
2023-03-21T19:10:09.431Z,98315.00
2023-03-21T19:12:34.917Z,98309.00
2023-03-21T19:15:05.964Z,98311.00
2023-03-21T19:20:22.880Z,98323.00
2023-03-21T19:22:51.196Z,98307.00
2023-03-21T19:25:21.828Z,98316.00
2023-03-21T19:27:52.121Z,98320.00
2023-03-21T19:30:20.704Z,98316.00
2023-03-21T19:32:48.933Z,98320.00
2023-03-21T19:35:17.480Z,98313.00
2023-03-21T19:37:45.745Z,98312.00
2023-03-21T19:40:15.004Z,98315.00
2023-03-21T19:42:44.623Z,98308.00
2023-03-21T19:45:13.458Z,98306.00
2023-03-21T19:47:42.055Z,98315.00
2023-03-21T19:53:00.505Z,98303.00
2023-03-21T19:55:28.708Z,98302.00
2023-03-21T19:57:58.695Z,98299.00
2023-03-21T20:00:27.067Z,98305.00
2023-03-21T20:02:55.552Z,98306.00
2023-03-21T20:05:25.653Z,98326.00
2023-03-21T20:07:55.461Z,98324.00
2023-03-21T20:10:23.559Z,98322.00
2023-03-21T20:12:51.754Z,98326.00
2023-03-21T20:15:22.063Z,98322.00
2023-03-21T20:17:52.285Z,98325.00
2023-03-21T20:20:21.447Z,98325.00
2023-03-21T20:23:08.151Z,98337.00
2023-03-21T20:25:39.789Z,98340.00
2023-03-21T20:28:22.615Z,98331.00
2023-03-21T20:30:56.766Z,98338.00
2023-03-21T20:33:25.266Z,98325.00
2023-03-21T20:38:45.672Z,98335.00
2023-03-21T20:41:13.810Z,98323.00
2023-03-21T20:46:31.604Z,98318.00
2023-03-21T20:48:59.834Z,98329.00
2023-03-21T20:54:16.257Z,98323.00
2023-03-21T20:56:44.394Z,98319.00
2023-03-21T20:59:23.243Z,98315.00
2023-03-21T21:01:55.781Z,98312.00
2023-03-21T21:04:42.774Z,98316.00
2023-03-21T21:07:16.257Z,98318.00
2023-03-21T21:09:44.666Z,98308.00
2023-03-21T21:12:13.357Z,98319.00
2023-03-21T21:14:41.922Z,98320.00
2023-03-21T21:17:27.726Z,98308.00
2023-03-21T21:19:59.433Z,98320.00
2023-03-21T21:22:28.277Z,98313.00
2023-03-21T21:24:56.332Z,98314.00
2023-03-21T21:27:25.128Z,98306.00
2023-03-21T21:29:53.214Z,98309.00
2023-03-21T21:32:22.608Z,98304.00
2023-03-21T21:34:50.660Z,98309.00
2023-03-21T21:37:18.715Z,98300.00
2023-03-21T21:39:46.763Z,98296.00
2023-03-21T21:42:15.259Z,98296.00
2023-03-21T21:44:45.009Z,98297.00
2023-03-21T21:47:13.110Z,98301.00
2023-03-21T21:49:42.519Z,98288.00
2023-03-21T21:52:13.739Z,98297.00
2023-03-21T21:54:45.707Z,98286.00
2023-03-21T21:57:14.627Z,98290.00
2023-03-21T21:59:42.639Z,98288.00
2023-03-21T22:02:13.799Z,98297.00
2023-03-21T22:04:43.332Z,98288.00
2023-03-21T22:07:14.671Z,98284.00
2023-03-21T22:09:42.938Z,98298.00
2023-03-21T22:12:11.013Z,98300.00
2023-03-21T22:14:39.052Z,98293.00
2023-03-21T22:17:07.355Z,98292.00
2023-03-21T22:19:35.379Z,98302.00
2023-03-21T22:22:04.843Z,98301.00
2023-03-21T22:24:33.058Z,98289.00
2023-03-21T22:27:01.098Z,98301.00
2023-03-21T22:29:29.252Z,98307.00
2023-03-21T22:31:57.363Z,98301.00
2023-03-21T22:34:26.181Z,98296.00
2023-03-21T22:36:55.879Z,98295.00
2023-03-21T22:39:26.374Z,98299.00
2023-03-21T22:41:55.072Z,98296.00
2023-03-21T22:44:23.130Z,98294.00
2023-03-21T22:46:51.211Z,98300.00
2023-03-21T22:49:19.244Z,98304.00
2023-03-21T22:51:47.267Z,98307.00
2023-03-21T22:54:15.399Z,98300.00
2023-03-21T22:56:44.910Z,98303.00
2023-03-21T22:59:12.962Z,98298.00
2023-03-21T23:01:41.032Z,98297.00
2023-03-21T23:04:09.154Z,98287.00
2023-03-21T23:06:37.299Z,98305.00
2023-03-21T23:09:05.393Z,98294.00
2023-03-21T23:11:33.427Z,98295.00
2023-03-21T23:14:08.145Z,98295.00
2023-03-21T23:16:38.416Z,98291.00
2023-03-21T23:19:08.154Z,98296.00
2023-03-21T23:21:38.305Z,98311.00
2023-03-21T23:24:06.885Z,98302.00
2023-03-21T23:26:34.980Z,98302.00
2023-03-21T23:29:04.576Z,98307.00
2023-03-21T23:31:33.171Z,98301.00
2023-03-21T23:34:01.228Z,98293.00
2023-03-21T23:36:29.441Z,98301.00
2023-03-21T23:38:57.507Z,98300.00
2023-03-21T23:41:25.782Z,98296.00
2023-03-21T23:43:53.848Z,98297.00
2023-03-21T23:46:23.321Z,98291.00
2023-03-21T23:48:51.465Z,98281.00
2023-03-21T23:51:19.545Z,98293.00
2023-03-21T23:53:47.834Z,98296.00
2023-03-21T23:56:17.147Z,98295.00
2023-03-21T23:58:45.611Z,98296.00
